sensor_id;sensor_type;location;lat;lon;timestamp;P1;durP1;ratioP1;P2;durP2;ratioP2
3133;SDS011;1577;49.912;10.924;2023-08-12T00:00:15;13.60;;;3.73;;
3133;SDS011;1577;49.912;10.924;2023-08-12T00:02:42;15.93;;;3.77;;
3133;SDS011;1577;49.912;10.924;2023-08-12T00:05:08;13.50;;;4.00;;
3133;SDS011;1577;49.912;10.924;2023-08-12T00:07:37;18.20;;;4.57;;
3133;SDS011;1577;49.912;10.924;2023-08-12T00:10:03;16.67;;;3.73;;
3133;SDS011;1577;49.912;10.924;2023-08-12T00:12:31;14.20;;;4.40;;
3133;SDS011;1577;49.912;10.924;2023-08-12T00:14:57;13.70;;;4.00;;
3133;SDS011;1577;49.912;10.924;2023-08-12T00:17:23;17.00;;;4.40;;
3133;SDS011;1577;49.912;10.924;2023-08-12T00:19:48;13.37;;;3.63;;
3133;SDS011;1577;49.912;10.924;2023-08-12T00:22:14;14.40;;;4.50;;
3133;SDS011;1577;49.912;10.924;2023-08-12T00:24:39;13.70;;;3.73;;
3133;SDS011;1577;49.912;10.924;2023-08-12T00:27:05;12.57;;;3.60;;
3133;SDS011;1577;49.912;10.924;2023-08-12T00:29:32;13.67;;;4.43;;
3133;SDS011;1577;49.912;10.924;2023-08-12T00:31:57;12.83;;;3.87;;
3133;SDS011;1577;49.912;10.924;2023-08-12T00:34:23;15.00;;;4.10;;
3133;SDS011;1577;49.912;10.924;2023-08-12T00:36:49;17.33;;;4.20;;
3133;SDS011;1577;49.912;10.924;2023-08-12T00:39:14;13.83;;;4.37;;
3133;SDS011;1577;49.912;10.924;2023-08-12T00:41:40;13.00;;;3.77;;
3133;SDS011;1577;49.912;10.924;2023-08-12T00:44:06;14.43;;;4.60;;
3133;SDS011;1577;49.912;10.924;2023-08-12T00:46:31;13.80;;;4.20;;
3133;SDS011;1577;49.912;10.924;2023-08-12T00:48:58;12.80;;;4.07;;
3133;SDS011;1577;49.912;10.924;2023-08-12T00:51:24;13.27;;;4.33;;
3133;SDS011;1577;49.912;10.924;2023-08-12T00:53:50;13.73;;;3.40;;
3133;SDS011;1577;49.912;10.924;2023-08-12T00:56:17;15.77;;;4.17;;
3133;SDS011;1577;49.912;10.924;2023-08-12T00:58:43;16.97;;;3.97;;
3133;SDS011;1577;49.912;10.924;2023-08-12T01:01:09;13.27;;;4.13;;
3133;SDS011;1577;49.912;10.924;2023-08-12T01:03:36;16.10;;;4.23;;
3133;SDS011;1577;49.912;10.924;2023-08-12T01:06:03;12.80;;;4.20;;
3133;SDS011;1577;49.912;10.924;2023-08-12T01:08:30;15.37;;;4.33;;
3133;SDS011;1577;49.912;10.924;2023-08-12T01:11:03;12.37;;;3.50;;
3133;SDS011;1577;49.912;10.924;2023-08-12T01:13:33;13.53;;;4.23;;
3133;SDS011;1577;49.912;10.924;2023-08-12T01:16:05;12.77;;;4.30;;
3133;SDS011;1577;49.912;10.924;2023-08-12T01:18:31;16.50;;;4.23;;
3133;SDS011;1577;49.912;10.924;2023-08-12T01:20:58;17.07;;;4.00;;
3133;SDS011;1577;49.912;10.924;2023-08-12T01:23:25;13.23;;;4.20;;
3133;SDS011;1577;49.912;10.924;2023-08-12T01:25:51;13.63;;;3.83;;
3133;SDS011;1577;49.912;10.924;2023-08-12T01:28:17;15.80;;;4.10;;
3133;SDS011;1577;49.912;10.924;2023-08-12T01:30:50;14.83;;;4.17;;
3133;SDS011;1577;49.912;10.924;2023-08-12T01:33:24;13.70;;;3.90;;
3133;SDS011;1577;49.912;10.924;2023-08-12T01:35:55;12.10;;;3.70;;
3133;SDS011;1577;49.912;10.924;2023-08-12T01:38:22;17.67;;;4.07;;
3133;SDS011;1577;49.912;10.924;2023-08-12T01:40:50;12.60;;;4.00;;
3133;SDS011;1577;49.912;10.924;2023-08-12T01:43:17;12.97;;;3.57;;
3133;SDS011;1577;49.912;10.924;2023-08-12T01:45:44;13.10;;;3.53;;
3133;SDS011;1577;49.912;10.924;2023-08-12T01:48:10;13.27;;;3.60;;
3133;SDS011;1577;49.912;10.924;2023-08-12T01:50:36;14.23;;;4.13;;
3133;SDS011;1577;49.912;10.924;2023-08-12T01:53:02;13.87;;;4.17;;
3133;SDS011;1577;49.912;10.924;2023-08-12T01:55:28;12.30;;;4.00;;
3133;SDS011;1577;49.912;10.924;2023-08-12T01:57:54;17.00;;;4.50;;
3133;SDS011;1577;49.912;10.924;2023-08-12T02:00:19;14.27;;;4.63;;
3133;SDS011;1577;49.912;10.924;2023-08-12T02:02:45;15.80;;;4.80;;
3133;SDS011;1577;49.912;10.924;2023-08-12T02:05:12;13.20;;;4.40;;
3133;SDS011;1577;49.912;10.924;2023-08-12T02:07:38;14.10;;;4.70;;
3133;SDS011;1577;49.912;10.924;2023-08-12T02:10:04;12.97;;;4.20;;
3133;SDS011;1577;49.912;10.924;2023-08-12T02:12:30;13.03;;;3.97;;
3133;SDS011;1577;49.912;10.924;2023-08-12T02:14:56;13.10;;;4.63;;
3133;SDS011;1577;49.912;10.924;2023-08-12T02:17:22;19.77;;;5.83;;
3133;SDS011;1577;49.912;10.924;2023-08-12T02:19:48;12.93;;;3.93;;
3133;SDS011;1577;49.912;10.924;2023-08-12T02:22:14;14.10;;;4.77;;
3133;SDS011;1577;49.912;10.924;2023-08-12T02:24:40;13.97;;;4.40;;
3133;SDS011;1577;49.912;10.924;2023-08-12T02:27:05;12.73;;;4.50;;
3133;SDS011;1577;49.912;10.924;2023-08-12T02:29:31;14.87;;;4.50;;
3133;SDS011;1577;49.912;10.924;2023-08-12T02:31:58;15.20;;;4.53;;
3133;SDS011;1577;49.912;10.924;2023-08-12T02:34:24;13.17;;;4.50;;
3133;SDS011;1577;49.912;10.924;2023-08-12T02:36:49;12.33;;;4.03;;
3133;SDS011;1577;49.912;10.924;2023-08-12T02:39:15;14.37;;;5.00;;
3133;SDS011;1577;49.912;10.924;2023-08-12T02:41:41;12.83;;;4.33;;
3133;SDS011;1577;49.912;10.924;2023-08-12T02:44:07;14.40;;;4.87;;
3133;SDS011;1577;49.912;10.924;2023-08-12T02:46:33;13.97;;;4.13;;
3133;SDS011;1577;49.912;10.924;2023-08-12T02:48:59;13.90;;;4.33;;
3133;SDS011;1577;49.912;10.924;2023-08-12T02:51:25;15.87;;;4.20;;
3133;SDS011;1577;49.912;10.924;2023-08-12T02:53:51;12.87;;;4.60;;
3133;SDS011;1577;49.912;10.924;2023-08-12T02:56:17;12.47;;;4.33;;
3133;SDS011;1577;49.912;10.924;2023-08-12T02:58:43;13.00;;;4.13;;
3133;SDS011;1577;49.912;10.924;2023-08-12T03:01:09;13.93;;;4.80;;
3133;SDS011;1577;49.912;10.924;2023-08-12T03:03:35;16.03;;;4.17;;
3133;SDS011;1577;49.912;10.924;2023-08-12T03:06:01;12.90;;;4.60;;
3133;SDS011;1577;49.912;10.924;2023-08-12T03:08:27;13.40;;;4.67;;
3133;SDS011;1577;49.912;10.924;2023-08-12T03:10:59;13.30;;;4.47;;
3133;SDS011;1577;49.912;10.924;2023-08-12T03:13:25;12.83;;;4.30;;
3133;SDS011;1577;49.912;10.924;2023-08-12T03:15:51;13.40;;;3.80;;
3133;SDS011;1577;49.912;10.924;2023-08-12T03:18:17;15.70;;;4.30;;
3133;SDS011;1577;49.912;10.924;2023-08-12T03:20:43;14.20;;;4.97;;
3133;SDS011;1577;49.912;10.924;2023-08-12T03:23:09;14.63;;;4.87;;
3133;SDS011;1577;49.912;10.924;2023-08-12T03:25:35;17.30;;;4.63;;
3133;SDS011;1577;49.912;10.924;2023-08-12T03:28:01;13.47;;;4.87;;
3133;SDS011;1577;49.912;10.924;2023-08-12T03:30:27;16.87;;;4.17;;
3133;SDS011;1577;49.912;10.924;2023-08-12T03:32:53;13.90;;;4.50;;
3133;SDS011;1577;49.912;10.924;2023-08-12T03:35:19;13.37;;;4.60;;
3133;SDS011;1577;49.912;10.924;2023-08-12T03:37:45;16.43;;;4.60;;
3133;SDS011;1577;49.912;10.924;2023-08-12T03:40:11;14.30;;;4.30;;
3133;SDS011;1577;49.912;10.924;2023-08-12T03:42:37;16.07;;;4.50;;
3133;SDS011;1577;49.912;10.924;2023-08-12T03:45:03;13.20;;;4.60;;
3133;SDS011;1577;49.912;10.924;2023-08-12T03:47:29;13.00;;;4.20;;
3133;SDS011;1577;49.912;10.924;2023-08-12T03:49:55;13.20;;;4.03;;
3133;SDS011;1577;49.912;10.924;2023-08-12T03:52:21;14.47;;;4.53;;
3133;SDS011;1577;49.912;10.924;2023-08-12T03:54:47;14.73;;;4.20;;
3133;SDS011;1577;49.912;10.924;2023-08-12T03:57:13;13.30;;;4.43;;
3133;SDS011;1577;49.912;10.924;2023-08-12T03:59:39;12.50;;;4.00;;
3133;SDS011;1577;49.912;10.924;2023-08-12T04:02:05;13.27;;;3.87;;
3133;SDS011;1577;49.912;10.924;2023-08-12T04:04:31;13.17;;;4.37;;
3133;SDS011;1577;49.912;10.924;2023-08-12T04:06:57;16.70;;;5.70;;
3133;SDS011;1577;49.912;10.924;2023-08-12T04:09:23;14.07;;;4.20;;
3133;SDS011;1577;49.912;10.924;2023-08-12T04:11:52;16.10;;;4.37;;
3133;SDS011;1577;49.912;10.924;2023-08-12T04:14:18;12.13;;;4.07;;
3133;SDS011;1577;49.912;10.924;2023-08-12T04:16:44;15.47;;;4.50;;
3133;SDS011;1577;49.912;10.924;2023-08-12T04:19:10;13.67;;;4.13;;
3133;SDS011;1577;49.912;10.924;2023-08-12T04:21:36;14.10;;;4.13;;
3133;SDS011;1577;49.912;10.924;2023-08-12T04:24:02;12.30;;;3.87;;
3133;SDS011;1577;49.912;10.924;2023-08-12T04:26:28;13.90;;;4.13;;
3133;SDS011;1577;49.912;10.924;2023-08-12T04:28:54;13.10;;;4.17;;
3133;SDS011;1577;49.912;10.924;2023-08-12T04:31:20;13.43;;;3.80;;
3133;SDS011;1577;49.912;10.924;2023-08-12T04:33:46;13.80;;;3.90;;
3133;SDS011;1577;49.912;10.924;2023-08-12T04:36:14;14.00;;;4.00;;
3133;SDS011;1577;49.912;10.924;2023-08-12T04:38:40;12.47;;;4.33;;
3133;SDS011;1577;49.912;10.924;2023-08-12T04:41:07;13.23;;;4.40;;
3133;SDS011;1577;49.912;10.924;2023-08-12T04:43:33;14.17;;;4.07;;
3133;SDS011;1577;49.912;10.924;2023-08-12T04:45:58;14.13;;;4.30;;
3133;SDS011;1577;49.912;10.924;2023-08-12T04:48:24;13.60;;;4.47;;
3133;SDS011;1577;49.912;10.924;2023-08-12T04:50:50;13.47;;;3.40;;
3133;SDS011;1577;49.912;10.924;2023-08-12T04:53:16;12.40;;;3.87;;
3133;SDS011;1577;49.912;10.924;2023-08-12T04:55:42;13.57;;;3.70;;
3133;SDS011;1577;49.912;10.924;2023-08-12T04:58:08;14.47;;;4.20;;
3133;SDS011;1577;49.912;10.924;2023-08-12T05:00:33;13.37;;;4.03;;
3133;SDS011;1577;49.912;10.924;2023-08-12T05:03:00;12.70;;;3.47;;
3133;SDS011;1577;49.912;10.924;2023-08-12T05:05:27;13.73;;;3.47;;
3133;SDS011;1577;49.912;10.924;2023-08-12T05:07:53;13.43;;;3.30;;
3133;SDS011;1577;49.912;10.924;2023-08-12T05:10:19;13.43;;;3.43;;
3133;SDS011;1577;49.912;10.924;2023-08-12T05:12:45;12.00;;;3.03;;
3133;SDS011;1577;49.912;10.924;2023-08-12T05:15:12;13.70;;;3.40;;
3133;SDS011;1577;49.912;10.924;2023-08-12T05:17:38;12.40;;;3.23;;
3133;SDS011;1577;49.912;10.924;2023-08-12T05:20:04;14.60;;;3.23;;
3133;SDS011;1577;49.912;10.924;2023-08-12T05:22:30;12.60;;;3.77;;
3133;SDS011;1577;49.912;10.924;2023-08-12T05:24:56;12.37;;;2.97;;
3133;SDS011;1577;49.912;10.924;2023-08-12T05:27:22;13.40;;;3.00;;
3133;SDS011;1577;49.912;10.924;2023-08-12T05:29:48;13.27;;;3.53;;
3133;SDS011;1577;49.912;10.924;2023-08-12T05:32:14;13.40;;;3.53;;
3133;SDS011;1577;49.912;10.924;2023-08-12T05:34:40;14.07;;;3.50;;
3133;SDS011;1577;49.912;10.924;2023-08-12T05:37:06;14.53;;;4.40;;
3133;SDS011;1577;49.912;10.924;2023-08-12T05:39:32;13.60;;;3.83;;
3133;SDS011;1577;49.912;10.924;2023-08-12T05:41:58;13.50;;;3.70;;
3133;SDS011;1577;49.912;10.924;2023-08-12T05:44:24;14.40;;;3.87;;
3133;SDS011;1577;49.912;10.924;2023-08-12T05:46:50;14.90;;;3.83;;
3133;SDS011;1577;49.912;10.924;2023-08-12T05:49:16;15.63;;;3.80;;
3133;SDS011;1577;49.912;10.924;2023-08-12T05:51:42;16.17;;;4.30;;
3133;SDS011;1577;49.912;10.924;2023-08-12T05:54:08;19.20;;;4.57;;
3133;SDS011;1577;49.912;10.924;2023-08-12T05:56:34;13.33;;;4.00;;
3133;SDS011;1577;49.912;10.924;2023-08-12T05:59:00;13.27;;;3.77;;
3133;SDS011;1577;49.912;10.924;2023-08-12T06:01:25;12.20;;;3.53;;
3133;SDS011;1577;49.912;10.924;2023-08-12T06:03:51;13.53;;;3.47;;
3133;SDS011;1577;49.912;10.924;2023-08-12T06:06:18;14.13;;;4.00;;
3133;SDS011;1577;49.912;10.924;2023-08-12T06:08:44;14.10;;;4.57;;
3133;SDS011;1577;49.912;10.924;2023-08-12T06:11:10;14.43;;;4.07;;
3133;SDS011;1577;49.912;10.924;2023-08-12T06:13:36;13.33;;;3.80;;
3133;SDS011;1577;49.912;10.924;2023-08-12T06:16:02;18.93;;;6.87;;
3133;SDS011;1577;49.912;10.924;2023-08-12T06:18:28;15.60;;;4.17;;
3133;SDS011;1577;49.912;10.924;2023-08-12T06:20:54;13.67;;;4.20;;
3133;SDS011;1577;49.912;10.924;2023-08-12T06:23:19;14.17;;;4.37;;
3133;SDS011;1577;49.912;10.924;2023-08-12T06:25:45;17.20;;;4.57;;
3133;SDS011;1577;49.912;10.924;2023-08-12T06:28:11;15.70;;;4.03;;
3133;SDS011;1577;49.912;10.924;2023-08-12T06:30:37;15.03;;;3.60;;
3133;SDS011;1577;49.912;10.924;2023-08-12T06:33:02;15.70;;;4.23;;
3133;SDS011;1577;49.912;10.924;2023-08-12T06:35:28;14.60;;;3.47;;
3133;SDS011;1577;49.912;10.924;2023-08-12T06:37:54;13.83;;;3.63;;
3133;SDS011;1577;49.912;10.924;2023-08-12T06:40:19;12.40;;;3.30;;
3133;SDS011;1577;49.912;10.924;2023-08-12T06:42:45;11.57;;;3.20;;
3133;SDS011;1577;49.912;10.924;2023-08-12T06:45:11;14.50;;;3.20;;
3133;SDS011;1577;49.912;10.924;2023-08-12T06:47:36;11.87;;;3.20;;
3133;SDS011;1577;49.912;10.924;2023-08-12T06:50:02;11.20;;;2.60;;
3133;SDS011;1577;49.912;10.924;2023-08-12T06:52:28;13.53;;;2.90;;
3133;SDS011;1577;49.912;10.924;2023-08-12T06:54:53;12.47;;;3.13;;
3133;SDS011;1577;49.912;10.924;2023-08-12T06:57:19;12.97;;;3.13;;
3133;SDS011;1577;49.912;10.924;2023-08-12T06:59:45;13.27;;;3.03;;
3133;SDS011;1577;49.912;10.924;2023-08-12T07:02:11;11.93;;;3.30;;
3133;SDS011;1577;49.912;10.924;2023-08-12T07:04:37;12.17;;;3.13;;
3133;SDS011;1577;49.912;10.924;2023-08-12T07:07:02;12.87;;;3.07;;
3133;SDS011;1577;49.912;10.924;2023-08-12T07:09:28;11.37;;;3.13;;
3133;SDS011;1577;49.912;10.924;2023-08-12T07:11:53;13.30;;;3.60;;
3133;SDS011;1577;49.912;10.924;2023-08-12T07:14:19;13.10;;;3.03;;
3133;SDS011;1577;49.912;10.924;2023-08-12T07:16:44;12.70;;;3.47;;
3133;SDS011;1577;49.912;10.924;2023-08-12T07:19:10;12.33;;;2.90;;
3133;SDS011;1577;49.912;10.924;2023-08-12T07:21:36;13.00;;;3.43;;
3133;SDS011;1577;49.912;10.924;2023-08-12T07:24:01;13.70;;;2.80;;
3133;SDS011;1577;49.912;10.924;2023-08-12T07:26:27;14.10;;;2.77;;
3133;SDS011;1577;49.912;10.924;2023-08-12T07:28:52;15.33;;;3.20;;
3133;SDS011;1577;49.912;10.924;2023-08-12T07:31:18;11.13;;;2.50;;
3133;SDS011;1577;49.912;10.924;2023-08-12T07:33:44;12.00;;;3.23;;
3133;SDS011;1577;49.912;10.924;2023-08-12T07:36:09;12.10;;;2.90;;
3133;SDS011;1577;49.912;10.924;2023-08-12T07:38:35;12.67;;;2.80;;
3133;SDS011;1577;49.912;10.924;2023-08-12T07:41:01;11.30;;;2.80;;
3133;SDS011;1577;49.912;10.924;2023-08-12T07:43:26;14.90;;;3.37;;
3133;SDS011;1577;49.912;10.924;2023-08-12T07:45:52;12.40;;;2.93;;
3133;SDS011;1577;49.912;10.924;2023-08-12T07:48:19;12.27;;;2.43;;
3133;SDS011;1577;49.912;10.924;2023-08-12T07:50:45;11.37;;;2.63;;
3133;SDS011;1577;49.912;10.924;2023-08-12T07:53:13;11.57;;;2.90;;
3133;SDS011;1577;49.912;10.924;2023-08-12T07:55:39;11.37;;;2.80;;
3133;SDS011;1577;49.912;10.924;2023-08-12T07:58:05;12.80;;;3.17;;
3133;SDS011;1577;49.912;10.924;2023-08-12T08:00:32;11.37;;;2.63;;
3133;SDS011;1577;49.912;10.924;2023-08-12T08:02:58;15.07;;;4.57;;
3133;SDS011;1577;49.912;10.924;2023-08-12T08:05:24;12.00;;;2.60;;
3133;SDS011;1577;49.912;10.924;2023-08-12T08:07:49;12.93;;;2.80;;
3133;SDS011;1577;49.912;10.924;2023-08-12T08:10:15;11.27;;;2.07;;
3133;SDS011;1577;49.912;10.924;2023-08-12T08:12:40;10.30;;;2.00;;
3133;SDS011;1577;49.912;10.924;2023-08-12T08:15:06;11.60;;;1.90;;
3133;SDS011;1577;49.912;10.924;2023-08-12T08:17:32;10.00;;;1.70;;
3133;SDS011;1577;49.912;10.924;2023-08-12T08:19:57;10.93;;;1.80;;
3133;SDS011;1577;49.912;10.924;2023-08-12T08:22:23;10.07;;;2.00;;
3133;SDS011;1577;49.912;10.924;2023-08-12T08:24:49;9.90;;;1.63;;
3133;SDS011;1577;49.912;10.924;2023-08-12T08:27:14;12.30;;;2.07;;
3133;SDS011;1577;49.912;10.924;2023-08-12T08:29:40;11.40;;;2.27;;
3133;SDS011;1577;49.912;10.924;2023-08-12T08:32:06;10.63;;;2.40;;
3133;SDS011;1577;49.912;10.924;2023-08-12T08:34:31;10.90;;;2.27;;
3133;SDS011;1577;49.912;10.924;2023-08-12T08:36:57;12.33;;;2.83;;
3133;SDS011;1577;49.912;10.924;2023-08-12T08:39:22;10.50;;;2.37;;
3133;SDS011;1577;49.912;10.924;2023-08-12T08:41:48;12.63;;;2.33;;
3133;SDS011;1577;49.912;10.924;2023-08-12T08:44:14;11.07;;;2.20;;
3133;SDS011;1577;49.912;10.924;2023-08-12T08:46:41;10.80;;;1.83;;
3133;SDS011;1577;49.912;10.924;2023-08-12T08:49:08;11.60;;;2.00;;
3133;SDS011;1577;49.912;10.924;2023-08-12T08:51:36;10.10;;;1.70;;
3133;SDS011;1577;49.912;10.924;2023-08-12T08:54:04;9.87;;;1.87;;
3133;SDS011;1577;49.912;10.924;2023-08-12T08:56:31;12.17;;;2.07;;
3133;SDS011;1577;49.912;10.924;2023-08-12T08:58:57;11.67;;;2.20;;
3133;SDS011;1577;49.912;10.924;2023-08-12T09:01:23;10.20;;;2.00;;
3133;SDS011;1577;49.912;10.924;2023-08-12T09:03:52;11.17;;;2.10;;
3133;SDS011;1577;49.912;10.924;2023-08-12T09:06:19;11.10;;;2.20;;
3133;SDS011;1577;49.912;10.924;2023-08-12T09:08:46;10.37;;;2.00;;
3133;SDS011;1577;49.912;10.924;2023-08-12T09:11:13;10.20;;;1.70;;
3133;SDS011;1577;49.912;10.924;2023-08-12T09:13:39;10.83;;;1.80;;
3133;SDS011;1577;49.912;10.924;2023-08-12T09:16:05;12.00;;;2.10;;
3133;SDS011;1577;49.912;10.924;2023-08-12T09:18:30;10.30;;;1.80;;
3133;SDS011;1577;49.912;10.924;2023-08-12T09:20:56;11.90;;;2.63;;
3133;SDS011;1577;49.912;10.924;2023-08-12T09:23:22;10.37;;;1.70;;
3133;SDS011;1577;49.912;10.924;2023-08-12T09:25:48;12.87;;;2.23;;
3133;SDS011;1577;49.912;10.924;2023-08-12T09:28:13;10.90;;;2.07;;
3133;SDS011;1577;49.912;10.924;2023-08-12T09:30:39;9.90;;;1.80;;
3133;SDS011;1577;49.912;10.924;2023-08-12T09:33:06;10.50;;;1.93;;
3133;SDS011;1577;49.912;10.924;2023-08-12T09:35:34;9.60;;;1.87;;
3133;SDS011;1577;49.912;10.924;2023-08-12T09:38:05;10.00;;;2.00;;
3133;SDS011;1577;49.912;10.924;2023-08-12T09:40:33;10.23;;;2.00;;
3133;SDS011;1577;49.912;10.924;2023-08-12T09:43:00;9.60;;;1.93;;
3133;SDS011;1577;49.912;10.924;2023-08-12T09:45:26;10.77;;;2.07;;
3133;SDS011;1577;49.912;10.924;2023-08-12T09:47:52;9.87;;;2.13;;
3133;SDS011;1577;49.912;10.924;2023-08-12T09:50:20;9.70;;;1.60;;
3133;SDS011;1577;49.912;10.924;2023-08-12T09:52:50;9.50;;;1.83;;
3133;SDS011;1577;49.912;10.924;2023-08-12T09:55:17;9.20;;;1.53;;
3133;SDS011;1577;49.912;10.924;2023-08-12T09:57:44;9.77;;;1.80;;
3133;SDS011;1577;49.912;10.924;2023-08-12T10:00:14;9.40;;;2.17;;
3133;SDS011;1577;49.912;10.924;2023-08-12T10:02:47;11.80;;;1.60;;
3133;SDS011;1577;49.912;10.924;2023-08-12T10:05:18;10.40;;;2.10;;
3133;SDS011;1577;49.912;10.924;2023-08-12T10:07:47;9.67;;;2.30;;
3133;SDS011;1577;49.912;10.924;2023-08-12T10:10:13;9.13;;;1.80;;
3133;SDS011;1577;49.912;10.924;2023-08-12T10:12:39;9.90;;;2.17;;
3133;SDS011;1577;49.912;10.924;2023-08-12T10:15:06;9.40;;;1.73;;
3133;SDS011;1577;49.912;10.924;2023-08-12T10:17:34;10.60;;;2.20;;
3133;SDS011;1577;49.912;10.924;2023-08-12T10:20:00;9.40;;;2.27;;
3133;SDS011;1577;49.912;10.924;2023-08-12T10:22:29;9.90;;;2.10;;
3133;SDS011;1577;49.912;10.924;2023-08-12T10:24:57;13.50;;;2.00;;
3133;SDS011;1577;49.912;10.924;2023-08-12T10:27:24;10.00;;;2.40;;
3133;SDS011;1577;49.912;10.924;2023-08-12T10:29:50;9.70;;;2.27;;
3133;SDS011;1577;49.912;10.924;2023-08-12T10:32:16;12.27;;;2.33;;
3133;SDS011;1577;49.912;10.924;2023-08-12T10:34:42;10.57;;;2.57;;
3133;SDS011;1577;49.912;10.924;2023-08-12T10:37:08;11.20;;;2.10;;
3133;SDS011;1577;49.912;10.924;2023-08-12T10:39:35;10.30;;;2.40;;
3133;SDS011;1577;49.912;10.924;2023-08-12T10:42:02;9.80;;;2.20;;
3133;SDS011;1577;49.912;10.924;2023-08-12T10:44:40;10.10;;;2.53;;
3133;SDS011;1577;49.912;10.924;2023-08-12T10:47:16;13.00;;;2.47;;
3133;SDS011;1577;49.912;10.924;2023-08-12T10:49:48;10.93;;;2.53;;
3133;SDS011;1577;49.912;10.924;2023-08-12T10:52:30;9.80;;;2.27;;
3133;SDS011;1577;49.912;10.924;2023-08-12T10:57:57;10.70;;;2.40;;
3133;SDS011;1577;49.912;10.924;2023-08-12T11:00:27;10.50;;;2.10;;
3133;SDS011;1577;49.912;10.924;2023-08-12T11:02:54;12.07;;;2.53;;
3133;SDS011;1577;49.912;10.924;2023-08-12T11:05:21;9.80;;;2.50;;
3133;SDS011;1577;49.912;10.924;2023-08-12T11:07:58;9.90;;;2.50;;
3133;SDS011;1577;49.912;10.924;2023-08-12T11:10:26;10.93;;;2.60;;
3133;SDS011;1577;49.912;10.924;2023-08-12T11:12:55;9.63;;;2.30;;
3133;SDS011;1577;49.912;10.924;2023-08-12T11:18:14;10.30;;;2.30;;
3133;SDS011;1577;49.912;10.924;2023-08-12T11:20:41;10.80;;;2.70;;
3133;SDS011;1577;49.912;10.924;2023-08-12T11:23:07;10.50;;;2.50;;
3133;SDS011;1577;49.912;10.924;2023-08-12T11:25:34;10.10;;;2.67;;
3133;SDS011;1577;49.912;10.924;2023-08-12T11:28:03;13.43;;;3.07;;
3133;SDS011;1577;49.912;10.924;2023-08-12T11:30:30;10.43;;;2.40;;
3133;SDS011;1577;49.912;10.924;2023-08-12T11:32:56;9.83;;;2.10;;
3133;SDS011;1577;49.912;10.924;2023-08-12T11:35:23;10.53;;;2.53;;
3133;SDS011;1577;49.912;10.924;2023-08-12T11:37:53;9.87;;;2.43;;
3133;SDS011;1577;49.912;10.924;2023-08-12T11:40:23;10.50;;;2.60;;
3133;SDS011;1577;49.912;10.924;2023-08-12T11:42:50;9.90;;;2.40;;
3133;SDS011;1577;49.912;10.924;2023-08-12T11:45:18;9.00;;;1.90;;
3133;SDS011;1577;49.912;10.924;2023-08-12T11:47:45;10.40;;;2.60;;
3133;SDS011;1577;49.912;10.924;2023-08-12T11:50:17;10.70;;;2.97;;
3133;SDS011;1577;49.912;10.924;2023-08-12T11:52:45;10.20;;;2.63;;
3133;SDS011;1577;49.912;10.924;2023-08-12T11:55:11;12.07;;;2.67;;
3133;SDS011;1577;49.912;10.924;2023-08-12T11:57:38;12.97;;;2.60;;
3133;SDS011;1577;49.912;10.924;2023-08-12T12:00:06;11.37;;;2.67;;
3133;SDS011;1577;49.912;10.924;2023-08-12T12:02:49;10.50;;;2.47;;
3133;SDS011;1577;49.912;10.924;2023-08-12T12:05:21;14.07;;;2.50;;
3133;SDS011;1577;49.912;10.924;2023-08-12T12:07:48;11.23;;;2.40;;
3133;SDS011;1577;49.912;10.924;2023-08-12T12:10:18;9.70;;;2.40;;
3133;SDS011;1577;49.912;10.924;2023-08-12T12:12:44;13.17;;;4.00;;
3133;SDS011;1577;49.912;10.924;2023-08-12T12:15:12;12.10;;;2.87;;
3133;SDS011;1577;49.912;10.924;2023-08-12T12:17:40;11.80;;;2.53;;
3133;SDS011;1577;49.912;10.924;2023-08-12T12:20:06;10.70;;;2.63;;
3133;SDS011;1577;49.912;10.924;2023-08-12T12:22:35;15.63;;;3.00;;
3133;SDS011;1577;49.912;10.924;2023-08-12T12:25:08;12.30;;;2.77;;
3133;SDS011;1577;49.912;10.924;2023-08-12T12:27:38;12.47;;;2.87;;
3133;SDS011;1577;49.912;10.924;2023-08-12T12:30:08;10.23;;;2.47;;
3133;SDS011;1577;49.912;10.924;2023-08-12T12:32:35;9.47;;;2.10;;
3133;SDS011;1577;49.912;10.924;2023-08-12T12:35:00;13.67;;;2.60;;
3133;SDS011;1577;49.912;10.924;2023-08-12T12:37:26;11.20;;;3.63;;
3133;SDS011;1577;49.912;10.924;2023-08-12T12:39:55;10.50;;;2.47;;
3133;SDS011;1577;49.912;10.924;2023-08-12T12:42:21;11.00;;;2.50;;
3133;SDS011;1577;49.912;10.924;2023-08-12T12:44:46;10.30;;;2.50;;
3133;SDS011;1577;49.912;10.924;2023-08-12T12:47:12;11.30;;;2.20;;
3133;SDS011;1577;49.912;10.924;2023-08-12T12:49:38;11.80;;;2.80;;
3133;SDS011;1577;49.912;10.924;2023-08-12T12:52:04;10.30;;;2.50;;
3133;SDS011;1577;49.912;10.924;2023-08-12T12:54:30;10.63;;;2.67;;
3133;SDS011;1577;49.912;10.924;2023-08-12T12:56:57;9.80;;;2.20;;
3133;SDS011;1577;49.912;10.924;2023-08-12T12:59:23;13.27;;;2.77;;
3133;SDS011;1577;49.912;10.924;2023-08-12T13:01:49;11.20;;;2.70;;
3133;SDS011;1577;49.912;10.924;2023-08-12T13:04:14;10.60;;;2.53;;
3133;SDS011;1577;49.912;10.924;2023-08-12T13:06:40;10.80;;;2.73;;
3133;SDS011;1577;49.912;10.924;2023-08-12T13:09:06;10.97;;;2.30;;
3133;SDS011;1577;49.912;10.924;2023-08-12T13:11:32;12.27;;;3.10;;
3133;SDS011;1577;49.912;10.924;2023-08-12T13:13:59;13.20;;;3.90;;
3133;SDS011;1577;49.912;10.924;2023-08-12T13:16:26;12.53;;;2.40;;
3133;SDS011;1577;49.912;10.924;2023-08-12T13:18:51;11.97;;;2.77;;
3133;SDS011;1577;49.912;10.924;2023-08-12T13:21:17;10.40;;;2.83;;
3133;SDS011;1577;49.912;10.924;2023-08-12T13:23:42;10.13;;;2.33;;
3133;SDS011;1577;49.912;10.924;2023-08-12T13:26:08;10.60;;;2.70;;
3133;SDS011;1577;49.912;10.924;2023-08-12T13:28:34;10.70;;;2.00;;
3133;SDS011;1577;49.912;10.924;2023-08-12T13:30:59;13.90;;;2.10;;
3133;SDS011;1577;49.912;10.924;2023-08-12T13:33:25;9.73;;;1.20;;
3133;SDS011;1577;49.912;10.924;2023-08-12T13:35:50;10.77;;;1.10;;
3133;SDS011;1577;49.912;10.924;2023-08-12T13:38:17;12.63;;;1.00;;
3133;SDS011;1577;49.912;10.924;2023-08-12T13:40:43;12.17;;;1.10;;
3133;SDS011;1577;49.912;10.924;2023-08-12T13:43:09;11.17;;;0.77;;
3133;SDS011;1577;49.912;10.924;2023-08-12T13:45:34;15.47;;;0.97;;
3133;SDS011;1577;49.912;10.924;2023-08-12T13:48:00;9.90;;;0.70;;
3133;SDS011;1577;49.912;10.924;2023-08-12T13:50:25;10.00;;;0.80;;
3133;SDS011;1577;49.912;10.924;2023-08-12T13:52:51;9.57;;;0.80;;
3133;SDS011;1577;49.912;10.924;2023-08-12T13:55:17;9.57;;;0.70;;
3133;SDS011;1577;49.912;10.924;2023-08-12T13:57:42;9.60;;;0.80;;
3133;SDS011;1577;49.912;10.924;2023-08-12T14:00:08;12.97;;;0.93;;
3133;SDS011;1577;49.912;10.924;2023-08-12T14:02:39;10.50;;;0.90;;
3133;SDS011;1577;49.912;10.924;2023-08-12T14:05:05;14.10;;;1.63;;
3133;SDS011;1577;49.912;10.924;2023-08-12T14:07:32;13.03;;;1.40;;
3133;SDS011;1577;49.912;10.924;2023-08-12T14:09:58;14.40;;;1.20;;
3133;SDS011;1577;49.912;10.924;2023-08-12T14:12:24;17.80;;;1.20;;
3133;SDS011;1577;49.912;10.924;2023-08-12T14:14:50;11.60;;;1.00;;
3133;SDS011;1577;49.912;10.924;2023-08-12T14:17:16;13.30;;;1.60;;
3133;SDS011;1577;49.912;10.924;2023-08-12T14:19:43;9.40;;;0.90;;
3133;SDS011;1577;49.912;10.924;2023-08-12T14:22:16;11.17;;;1.40;;
3133;SDS011;1577;49.912;10.924;2023-08-12T14:24:42;10.63;;;1.53;;
3133;SDS011;1577;49.912;10.924;2023-08-12T14:27:09;9.50;;;0.67;;
3133;SDS011;1577;49.912;10.924;2023-08-12T14:29:35;11.47;;;1.10;;
3133;SDS011;1577;49.912;10.924;2023-08-12T14:32:00;10.70;;;1.10;;
3133;SDS011;1577;49.912;10.924;2023-08-12T14:34:26;11.20;;;1.43;;
3133;SDS011;1577;49.912;10.924;2023-08-12T14:36:51;12.67;;;1.30;;
3133;SDS011;1577;49.912;10.924;2023-08-12T14:39:17;12.43;;;0.90;;
3133;SDS011;1577;49.912;10.924;2023-08-12T14:41:45;9.90;;;0.80;;
3133;SDS011;1577;49.912;10.924;2023-08-12T14:44:11;10.13;;;1.00;;
3133;SDS011;1577;49.912;10.924;2023-08-12T14:46:36;10.80;;;0.90;;
3133;SDS011;1577;49.912;10.924;2023-08-12T14:49:02;11.30;;;1.10;;